Terminal Aerodrome Forecast
Issued by NWS

Home | Current Version | Previous Version | Text Only | Print | Product List | Glossary On
Versions: 1 2 3 4 5 6 7 8 9 10 11 12 13
982
FTUS42 TJSJ 221120
TAFJSJ
TAF
TJSJ 221120Z 2212/2312 13003KT P6SM VCSH SCT026 SCT030 SCT070
     FM221400 08012KT P6SM VCSH FEW028 SCT035
     FM221600 08015KT P6SM SCT025 SCT050
     FM222200 10006KT P6SM FEW024=

USA.gov is the U.S. government's official web portal to all federal, state and local government web resources and services.